createdAt,value
2023-05-25T00:01:35.367Z,50.20
2023-05-25T00:04:04.145Z,50.43
2023-05-25T00:06:33.057Z,50.31
2023-05-25T00:09:01.105Z,50.25
2023-05-25T00:11:29.060Z,50.28
2023-05-25T00:13:58.339Z,50.19
2023-05-25T00:16:26.385Z,50.38
2023-05-25T00:18:57.351Z,50.54
2023-05-25T00:21:25.712Z,50.44
2023-05-25T00:23:54.057Z,50.78
2023-05-25T00:26:21.952Z,51.34
2023-05-25T00:28:49.924Z,51.11
2023-05-25T00:31:19.338Z,51.23
2023-05-25T00:33:47.499Z,51.14
2023-05-25T00:36:15.485Z,51.28
2023-05-25T00:38:44.567Z,51.07
2023-05-25T00:41:13.031Z,51.12
2023-05-25T00:43:40.964Z,51.11
2023-05-25T00:46:08.990Z,51.34
2023-05-25T00:48:38.454Z,50.93
2023-05-25T00:51:06.860Z,51.15
2023-05-25T00:53:37.169Z,51.26
2023-05-25T00:56:06.786Z,51.20
2023-05-25T00:58:35.134Z,51.30
2023-05-25T01:01:03.179Z,51.25
2023-05-25T01:03:37.141Z,51.38
2023-05-25T01:06:08.569Z,51.37
2023-05-25T01:08:36.557Z,51.40
2023-05-25T01:11:04.635Z,51.42
2023-05-25T01:13:32.571Z,51.65
2023-05-25T01:16:00.531Z,51.49
2023-05-25T01:18:28.772Z,51.58
2023-05-25T01:21:13.446Z,51.50
2023-05-25T01:23:43.875Z,51.27
2023-05-25T01:26:16.315Z,51.45
2023-05-25T01:28:50.324Z,51.46
2023-05-25T01:31:19.175Z,51.58
2023-05-25T01:33:47.095Z,51.63
2023-05-25T01:36:16.384Z,51.73
2023-05-25T01:38:44.281Z,51.75
2023-05-25T01:41:12.281Z,52.21
2023-05-25T01:43:40.264Z,52.14
2023-05-25T01:46:21.015Z,52.17
2023-05-25T01:48:54.308Z,51.94
2023-05-25T01:51:27.557Z,52.05
2023-05-25T01:53:57.340Z,51.95
2023-05-25T01:56:26.568Z,52.01
2023-05-25T01:58:54.645Z,51.78
2023-05-25T02:01:22.894Z,51.83
2023-05-25T02:03:51.036Z,52.08
2023-05-25T02:06:19.046Z,51.82
2023-05-25T02:08:48.380Z,51.88
2023-05-25T02:11:17.282Z,52.06
2023-05-25T02:13:46.871Z,52.18
2023-05-25T02:16:14.896Z,52.35
2023-05-25T02:18:46.218Z,52.10
2023-05-25T02:21:14.226Z,52.08
2023-05-25T02:23:42.166Z,52.03
2023-05-25T02:26:11.425Z,52.12
2023-05-25T02:28:39.537Z,52.16
2023-05-25T02:31:07.480Z,52.08
2023-05-25T02:33:35.533Z,51.92
2023-05-25T02:36:03.457Z,52.08
2023-05-25T02:38:31.467Z,52.07
2023-05-25T02:40:59.491Z,52.20
2023-05-25T02:43:28.845Z,52.10
2023-05-25T02:45:57.042Z,52.26
2023-05-25T02:48:24.987Z,52.18
2023-05-25T02:50:52.944Z,52.51
2023-05-25T02:53:21.037Z,52.56
2023-05-25T02:55:49.260Z,52.51
2023-05-25T02:58:20.259Z,52.68
2023-05-25T03:01:10.361Z,52.78
2023-05-25T03:03:41.172Z,52.92
2023-05-25T03:06:09.190Z,52.92
2023-05-25T03:08:37.157Z,52.74
2023-05-25T03:11:05.141Z,52.71
2023-05-25T03:13:33.366Z,52.73
2023-05-25T03:16:01.494Z,52.89
2023-05-25T03:18:31.398Z,52.88
2023-05-25T03:20:59.656Z,52.81
2023-05-25T03:23:27.627Z,52.57
2023-05-25T03:25:58.197Z,52.46
2023-05-25T03:28:26.484Z,52.36
2023-05-25T03:30:54.780Z,52.30
2023-05-25T03:33:22.931Z,52.40
2023-05-25T03:35:52.666Z,52.51
2023-05-25T03:38:20.791Z,52.46
2023-05-25T03:40:49.255Z,52.65
2023-05-25T03:43:17.446Z,52.63
2023-05-25T03:45:48.061Z,52.50
2023-05-25T03:48:17.203Z,52.66
2023-05-25T03:50:45.166Z,52.68
2023-05-25T03:53:14.463Z,52.57
2023-05-25T03:55:43.207Z,52.42
2023-05-25T03:58:11.360Z,52.29
2023-05-25T04:00:39.325Z,52.36
2023-05-25T04:03:11.045Z,52.34
2023-05-25T04:05:39.636Z,52.34
2023-05-25T04:08:08.642Z,52.37
2023-05-25T04:10:37.995Z,52.59
2023-05-25T04:13:05.983Z,52.61
2023-05-25T04:15:35.632Z,52.61
2023-05-25T04:18:08.736Z,52.58
2023-05-25T04:20:36.968Z,52.75
2023-05-25T04:23:06.139Z,52.59
2023-05-25T04:25:35.063Z,52.54
2023-05-25T04:28:04.602Z,52.61
2023-05-25T04:30:45.881Z,52.61
2023-05-25T04:33:29.992Z,52.45
2023-05-25T04:36:14.297Z,52.54
2023-05-25T04:38:43.030Z,52.34
2023-05-25T04:41:11.346Z,52.51
2023-05-25T04:43:52.665Z,52.55
2023-05-25T04:46:29.854Z,52.73
2023-05-25T04:48:57.973Z,52.88
2023-05-25T04:51:26.725Z,53.08
2023-05-25T04:53:54.699Z,52.94
2023-05-25T04:56:25.812Z,53.17
2023-05-25T04:58:55.331Z,53.46
2023-05-25T05:01:24.080Z,53.14
2023-05-25T05:03:52.302Z,53.34
2023-05-25T05:06:20.507Z,53.41
2023-05-25T05:08:48.482Z,53.36
2023-05-25T05:11:16.508Z,53.45
2023-05-25T05:13:45.320Z,53.36
2023-05-25T05:16:14.695Z,53.32
2023-05-25T05:18:43.322Z,53.41
2023-05-25T05:21:11.562Z,53.23
2023-05-25T05:23:40.207Z,53.40
2023-05-25T05:26:11.388Z,53.33
2023-05-25T05:28:39.367Z,53.63
2023-05-25T05:31:07.521Z,53.61
2023-05-25T05:33:37.501Z,53.50
2023-05-25T05:36:06.188Z,53.69
2023-05-25T05:38:34.335Z,53.69
2023-05-25T05:41:02.850Z,53.86
2023-05-25T05:43:31.016Z,53.75
2023-05-25T05:45:59.104Z,53.94
2023-05-25T05:48:27.189Z,53.93
2023-05-25T05:50:56.756Z,53.91
2023-05-25T05:53:25.630Z,53.97
2023-05-25T05:55:59.036Z,54.00
2023-05-25T05:58:27.741Z,53.98
2023-05-25T06:00:56.384Z,53.87
2023-05-25T06:03:24.512Z,53.75
2023-05-25T06:05:52.698Z,53.88
2023-05-25T06:08:22.133Z,53.90
2023-05-25T06:10:50.084Z,53.85
2023-05-25T06:13:18.081Z,53.63
2023-05-25T06:15:46.338Z,53.75
2023-05-25T06:18:19.278Z,54.04
2023-05-25T06:20:47.485Z,53.75
2023-05-25T06:23:15.869Z,53.78
2023-05-25T06:25:45.980Z,53.83
2023-05-25T06:28:15.063Z,54.16
2023-05-25T06:30:43.486Z,53.83
2023-05-25T06:33:12.652Z,54.26
2023-05-25T06:35:40.683Z,54.18
2023-05-25T06:38:08.658Z,54.31
2023-05-25T06:40:36.609Z,54.03
2023-05-25T06:43:06.208Z,54.07
2023-05-25T06:45:52.760Z,53.69
2023-05-25T06:48:21.067Z,53.66
2023-05-25T06:50:49.103Z,53.47
2023-05-25T06:53:18.264Z,53.43
2023-05-25T06:55:46.389Z,53.39
2023-05-25T06:58:16.202Z,53.19
2023-05-25T07:00:46.039Z,53.10
2023-05-25T07:03:14.797Z,53.11
2023-05-25T07:05:43.156Z,53.28
2023-05-25T07:08:11.909Z,53.14
2023-05-25T07:10:40.025Z,53.32
2023-05-25T07:13:08.096Z,52.98
2023-05-25T07:15:37.370Z,52.98
2023-05-25T07:18:05.547Z,52.92
2023-05-25T07:20:34.310Z,53.14
2023-05-25T07:23:02.448Z,52.95
2023-05-25T07:25:30.876Z,53.08
2023-05-25T07:27:59.423Z,53.03
2023-05-25T07:30:27.485Z,53.03
2023-05-25T07:33:04.615Z,53.00
2023-05-25T07:35:35.260Z,52.93
2023-05-25T07:38:04.530Z,52.97
2023-05-25T07:40:32.521Z,52.80
2023-05-25T07:43:01.522Z,52.59
2023-05-25T07:45:32.090Z,52.46
2023-05-25T07:48:01.470Z,52.38
2023-05-25T07:50:31.600Z,52.03
2023-05-25T07:53:00.889Z,51.99
2023-05-25T07:55:28.831Z,51.58
2023-05-25T07:57:56.995Z,51.62
2023-05-25T08:00:25.255Z,51.97
2023-05-25T08:02:53.833Z,51.64
2023-05-25T08:05:23.238Z,51.55
2023-05-25T08:07:51.333Z,51.66
2023-05-25T08:10:19.441Z,51.55
2023-05-25T08:12:49.543Z,51.35
2023-05-25T08:15:18.129Z,51.39
2023-05-25T08:17:46.110Z,51.14
2023-05-25T08:20:15.338Z,51.23
2023-05-25T08:22:45.551Z,51.02
2023-05-25T08:25:13.558Z,50.75
2023-05-25T08:27:41.509Z,50.65
2023-05-25T08:30:10.283Z,50.65
2023-05-25T08:32:38.199Z,50.55
2023-05-25T08:35:06.986Z,50.28
2023-05-25T08:37:35.687Z,49.96
2023-05-25T08:40:06.602Z,50.15
2023-05-25T08:42:34.622Z,49.72
2023-05-25T08:45:02.693Z,49.92
2023-05-25T08:47:34.651Z,49.63
2023-05-25T08:50:05.134Z,49.11
2023-05-25T08:52:34.098Z,49.05
2023-05-25T08:55:04.937Z,48.57
2023-05-25T08:57:41.911Z,48.65
2023-05-25T09:00:11.440Z,48.23
2023-05-25T09:02:40.985Z,47.97
2023-05-25T09:05:09.631Z,48.00
2023-05-25T09:07:37.728Z,47.53
2023-05-25T09:10:07.975Z,47.64
2023-05-25T09:12:36.803Z,47.43
2023-05-25T09:15:05.670Z,47.17
2023-05-25T09:17:35.914Z,46.95
2023-05-25T09:20:06.018Z,46.24
2023-05-25T09:22:34.129Z,46.29
2023-05-25T09:25:02.082Z,46.10
2023-05-25T09:27:31.429Z,46.15
2023-05-25T09:30:01.211Z,46.20
2023-05-25T09:32:29.267Z,46.09
2023-05-25T09:34:57.880Z,45.79
2023-05-25T09:37:25.983Z,45.76
2023-05-25T09:39:54.309Z,45.45
2023-05-25T09:42:22.332Z,45.16
2023-05-25T09:44:51.841Z,44.95
2023-05-25T09:47:19.796Z,44.54
2023-05-25T09:49:49.955Z,44.70
2023-05-25T09:52:17.905Z,44.49
2023-05-25T09:54:46.771Z,44.25
2023-05-25T09:57:14.972Z,44.11
2023-05-25T09:59:43.096Z,43.76
2023-05-25T10:02:12.509Z,43.46
2023-05-25T10:04:41.373Z,42.95
2023-05-25T10:07:09.622Z,42.74
2023-05-25T10:09:40.627Z,42.61
2023-05-25T10:12:08.889Z,43.10
2023-05-25T10:14:38.485Z,43.83
2023-05-25T10:17:07.739Z,43.52
2023-05-25T10:19:41.958Z,43.35
2023-05-25T10:22:15.213Z,43.75
2023-05-25T10:24:44.942Z,44.11
2023-05-25T10:27:27.027Z,44.35
2023-05-25T10:29:56.073Z,44.69
2023-05-25T10:32:24.108Z,45.00
2023-05-25T10:34:53.844Z,44.87
2023-05-25T10:37:23.883Z,44.86
2023-05-25T10:39:51.910Z,44.86
2023-05-25T10:42:19.960Z,44.63
2023-05-25T10:44:47.985Z,44.48
2023-05-25T10:47:16.337Z,44.16
2023-05-25T10:49:55.710Z,44.02
2023-05-25T10:52:23.996Z,43.69
2023-05-25T10:54:51.971Z,43.33
2023-05-25T10:57:20.845Z,43.20
2023-05-25T10:59:52.313Z,43.02
2023-05-25T11:02:23.472Z,42.11
2023-05-25T11:04:51.855Z,40.77
2023-05-25T11:07:21.651Z,39.93
2023-05-25T11:09:59.477Z,39.98
2023-05-25T11:12:27.665Z,39.92
2023-05-25T11:15:12.942Z,40.30
2023-05-25T11:17:48.154Z,40.07
2023-05-25T11:20:22.967Z,39.44
2023-05-25T11:22:53.942Z,39.46
2023-05-25T11:25:37.523Z,39.25
2023-05-25T11:28:06.032Z,39.19
2023-05-25T11:30:34.017Z,38.83
2023-05-25T11:33:03.856Z,38.60
2023-05-25T11:35:38.073Z,38.93
2023-05-25T11:38:08.433Z,38.67
2023-05-25T11:40:39.245Z,38.13
2023-05-25T11:43:08.811Z,38.04
2023-05-25T11:45:38.183Z,38.24
2023-05-25T11:48:06.638Z,38.21
2023-05-25T11:50:34.738Z,38.19
2023-05-25T11:53:06.071Z,37.90
2023-05-25T11:55:35.558Z,38.23
2023-05-25T11:58:03.523Z,37.86
2023-05-25T12:00:31.689Z,37.67
2023-05-25T12:02:59.940Z,37.79
2023-05-25T12:05:28.362Z,37.25
2023-05-25T12:07:56.754Z,37.48
2023-05-25T12:10:24.681Z,36.64
2023-05-25T12:12:58.252Z,36.49
2023-05-25T12:15:27.115Z,36.51
2023-05-25T12:17:55.108Z,35.63
2023-05-25T12:20:23.289Z,35.36
2023-05-25T12:22:51.306Z,35.13
2023-05-25T12:25:20.887Z,35.06
2023-05-25T12:27:49.036Z,34.62
2023-05-25T12:30:18.453Z,34.91
2023-05-25T12:32:55.782Z,35.07
2023-05-25T12:35:23.823Z,35.31
2023-05-25T12:37:51.785Z,34.74
2023-05-25T12:40:20.836Z,34.16
2023-05-25T12:42:57.129Z,33.58
2023-05-25T12:45:26.809Z,33.62
2023-05-25T12:47:54.882Z,32.24
2023-05-25T12:50:22.965Z,31.70
2023-05-25T12:52:50.997Z,31.70
2023-05-25T12:55:27.216Z,31.66
2023-05-25T12:57:55.705Z,31.54
2023-05-25T13:00:23.897Z,31.63
2023-05-25T13:02:53.576Z,31.86
2023-05-25T13:05:22.754Z,31.82
2023-05-25T13:07:50.871Z,31.55
2023-05-25T13:10:19.185Z,31.18
2023-05-25T13:12:47.488Z,31.64
2023-05-25T13:15:16.040Z,32.07
2023-05-25T13:17:44.471Z,31.61
2023-05-25T13:20:15.227Z,31.54
2023-05-25T13:22:44.952Z,31.10
2023-05-25T13:25:13.557Z,31.31
2023-05-25T13:27:44.481Z,31.81
2023-05-25T13:30:13.233Z,31.95
2023-05-25T13:32:43.089Z,31.38
2023-05-25T13:35:12.922Z,30.35
2023-05-25T13:37:42.289Z,30.23
2023-05-25T13:40:10.867Z,30.04
2023-05-25T13:42:38.989Z,28.82
2023-05-25T13:45:08.021Z,28.73
2023-05-25T13:47:36.084Z,28.72
2023-05-25T13:50:04.606Z,28.23
2023-05-25T13:52:33.092Z,28.53
2023-05-25T13:55:02.511Z,28.31
2023-05-25T13:57:30.500Z,28.02
2023-05-25T13:59:58.404Z,28.28
2023-05-25T14:02:26.428Z,28.08
2023-05-25T14:04:55.135Z,27.72
2023-05-25T14:07:23.891Z,28.15
2023-05-25T14:09:51.956Z,27.95
2023-05-25T14:12:21.276Z,28.06
2023-05-25T14:14:49.339Z,28.06
2023-05-25T14:17:17.236Z,27.17
2023-05-25T14:19:45.497Z,27.40
2023-05-25T14:22:14.565Z,27.80
2023-05-25T14:24:42.909Z,27.92
2023-05-25T14:27:13.826Z,27.90
2023-05-25T14:29:43.191Z,27.61
2023-05-25T14:32:11.227Z,27.26
2023-05-25T14:34:39.206Z,27.76
2023-05-25T14:37:07.444Z,28.09
2023-05-25T14:39:36.329Z,28.15
2023-05-25T14:42:04.531Z,27.90
2023-05-25T14:44:32.704Z,28.11
2023-05-25T14:47:02.055Z,27.50
2023-05-25T14:49:30.054Z,27.85
2023-05-25T14:51:58.019Z,27.17
2023-05-25T14:54:26.006Z,27.91
2023-05-25T14:56:53.926Z,27.40
2023-05-25T14:59:21.915Z,28.22
2023-05-25T15:01:50.080Z,28.07
2023-05-25T15:04:19.916Z,28.36
2023-05-25T15:06:48.258Z,27.62
2023-05-25T15:09:17.332Z,28.29
2023-05-25T15:11:45.496Z,28.13
2023-05-25T15:14:13.491Z,28.35
2023-05-25T15:16:41.983Z,28.12
2023-05-25T15:19:12.645Z,27.91
2023-05-25T15:21:45.111Z,28.35
2023-05-25T15:24:16.603Z,28.36
2023-05-25T15:26:44.697Z,27.84
2023-05-25T15:29:12.998Z,28.20
2023-05-25T15:31:41.452Z,28.49
2023-05-25T15:34:13.137Z,27.81
2023-05-25T15:36:41.312Z,27.59
2023-05-25T15:39:11.577Z,27.31
2023-05-25T15:41:42.405Z,27.32
2023-05-25T15:44:12.816Z,27.70
2023-05-25T15:46:41.157Z,27.41
2023-05-25T15:49:12.144Z,27.14
2023-05-25T15:51:41.689Z,27.53
2023-05-25T15:54:14.371Z,27.59
2023-05-25T15:56:43.050Z,28.05
2023-05-25T15:59:12.646Z,27.86
2023-05-25T16:01:40.893Z,27.86
2023-05-25T16:04:09.460Z,27.42
2023-05-25T16:06:38.494Z,27.94
2023-05-25T16:09:06.748Z,27.70
2023-05-25T16:11:36.266Z,28.08
2023-05-25T16:14:04.191Z,28.25
2023-05-25T16:16:33.690Z,28.03
2023-05-25T16:19:01.728Z,27.89
2023-05-25T16:21:29.732Z,27.47
2023-05-25T16:23:57.714Z,27.88
2023-05-25T16:26:27.174Z,28.08
2023-05-25T16:28:56.845Z,28.01
2023-05-25T16:31:24.858Z,28.33
2023-05-25T16:33:52.815Z,28.78
2023-05-25T16:36:21.293Z,28.98
2023-05-25T16:38:49.220Z,28.50
2023-05-25T16:41:19.387Z,28.27
2023-05-25T16:43:47.403Z,28.45
2023-05-25T16:46:16.851Z,28.42
2023-05-25T16:48:44.936Z,28.38
2023-05-25T16:51:15.224Z,28.19
2023-05-25T16:53:43.601Z,27.65
2023-05-25T16:56:11.840Z,28.24
2023-05-25T16:58:39.945Z,27.97
2023-05-25T17:01:07.954Z,28.35
2023-05-25T17:03:37.443Z,28.93
2023-05-25T17:06:05.824Z,29.53
2023-05-25T17:08:33.886Z,29.34
2023-05-25T17:11:01.816Z,29.53
2023-05-25T17:13:29.913Z,29.03
2023-05-25T17:15:58.183Z,28.77
2023-05-25T17:18:26.994Z,28.90
2023-05-25T17:20:57.809Z,29.11
2023-05-25T17:23:25.814Z,29.02
2023-05-25T17:25:53.825Z,29.60
2023-05-25T17:28:21.739Z,29.28
2023-05-25T17:30:49.698Z,29.76
2023-05-25T17:33:17.764Z,30.02
2023-05-25T17:35:46.425Z,30.14
2023-05-25T17:38:15.963Z,30.48
2023-05-25T17:40:44.116Z,30.84
2023-05-25T17:43:12.135Z,31.12
2023-05-25T17:45:40.235Z,31.14
2023-05-25T17:48:08.311Z,31.29
2023-05-25T17:50:36.508Z,31.41
2023-05-25T17:53:04.655Z,31.56
2023-05-25T17:55:33.978Z,31.96
2023-05-25T17:58:01.998Z,32.12
2023-05-25T18:00:30.838Z,32.43
2023-05-25T18:02:59.042Z,32.56
2023-05-25T18:05:27.097Z,32.54
2023-05-25T18:07:55.122Z,32.71
2023-05-25T18:10:23.053Z,32.79
2023-05-25T18:12:52.910Z,33.26
2023-05-25T18:15:21.755Z,33.43
2023-05-25T18:17:51.118Z,34.02
2023-05-25T18:20:19.242Z,33.80
2023-05-25T18:22:47.337Z,34.27
2023-05-25T18:25:15.369Z,34.43
2023-05-25T18:27:43.335Z,34.58
2023-05-25T18:30:13.830Z,35.21
2023-05-25T18:32:42.010Z,34.92
2023-05-25T18:35:10.315Z,34.88
2023-05-25T18:37:38.446Z,35.32
2023-05-25T18:40:07.554Z,35.18
2023-05-25T18:42:35.841Z,35.78
2023-05-25T18:45:04.021Z,35.66
2023-05-25T18:47:33.594Z,35.82
2023-05-25T18:50:01.787Z,35.97
2023-05-25T18:52:29.798Z,36.19
2023-05-25T18:54:57.721Z,36.21
2023-05-25T18:57:25.690Z,36.26
2023-05-25T18:59:53.625Z,36.66
2023-05-25T19:02:21.677Z,36.97
2023-05-25T19:04:51.085Z,37.25
2023-05-25T19:07:19.084Z,37.08
2023-05-25T19:09:48.164Z,37.39
2023-05-25T19:12:16.556Z,37.72
2023-05-25T19:14:44.577Z,38.32
2023-05-25T19:17:12.550Z,38.82
2023-05-25T19:19:40.465Z,38.84
2023-05-25T19:22:10.300Z,39.11
2023-05-25T19:24:41.352Z,38.94
2023-05-25T19:27:10.809Z,39.56
2023-05-25T19:29:38.792Z,39.26
2023-05-25T19:32:07.067Z,39.51
2023-05-25T19:34:36.892Z,39.67
2023-05-25T19:39:39.794Z,40.18
2023-05-25T19:42:07.903Z,40.21
2023-05-25T19:44:35.931Z,40.46
2023-05-25T19:47:03.875Z,40.53
2023-05-25T19:49:31.857Z,40.72
2023-05-25T19:51:59.815Z,40.83
2023-05-25T19:54:28.013Z,41.16
2023-05-25T19:56:57.327Z,41.79
2023-05-25T19:59:27.951Z,41.92
2023-05-25T20:01:56.721Z,42.32
2023-05-25T20:04:25.148Z,42.06
2023-05-25T20:06:53.756Z,42.17
2023-05-25T20:09:29.994Z,42.23
2023-05-25T20:11:59.766Z,42.43
2023-05-25T20:14:27.715Z,42.58
2023-05-25T20:16:55.911Z,42.61
2023-05-25T20:19:24.024Z,42.62
2023-05-25T20:21:52.483Z,42.71
2023-05-25T20:24:22.034Z,42.41
2023-05-25T20:26:50.229Z,42.37
2023-05-25T20:29:19.545Z,42.45
2023-05-25T20:31:47.597Z,42.93
2023-05-25T20:34:15.686Z,42.84
2023-05-25T20:36:43.958Z,43.29
2023-05-25T20:39:11.892Z,43.40
2023-05-25T20:41:39.876Z,43.53
2023-05-25T20:44:08.799Z,43.79
2023-05-25T20:46:38.405Z,43.64
2023-05-25T20:49:06.580Z,44.03
2023-05-25T20:51:34.499Z,44.25
2023-05-25T20:54:02.568Z,44.34
2023-05-25T20:56:30.487Z,44.33
2023-05-25T20:58:58.521Z,44.48
2023-05-25T21:01:26.510Z,44.59
2023-05-25T21:03:56.356Z,44.80
2023-05-25T21:06:24.503Z,45.27
2023-05-25T21:08:54.070Z,45.49
2023-05-25T21:11:22.122Z,45.31
2023-05-25T21:13:50.053Z,45.77
2023-05-25T21:16:18.186Z,46.13
2023-05-25T21:18:46.489Z,45.79
2023-05-25T21:21:16.101Z,46.42
2023-05-25T21:23:44.135Z,46.29
2023-05-25T21:26:14.303Z,46.39
2023-05-25T21:28:42.285Z,46.39
2023-05-25T21:31:11.507Z,46.74
2023-05-25T21:33:40.203Z,46.65
2023-05-25T21:36:08.924Z,46.39
2023-05-25T21:38:38.291Z,46.55
2023-05-25T21:41:07.046Z,46.80
2023-05-25T21:43:34.972Z,46.91
2023-05-25T21:46:03.422Z,46.87
2023-05-25T21:48:31.340Z,47.26
2023-05-25T21:50:59.278Z,47.44
2023-05-25T21:53:27.200Z,47.51
2023-05-25T21:55:56.550Z,47.50
2023-05-25T21:58:24.519Z,47.02
2023-05-25T22:00:52.664Z,47.26
2023-05-25T22:03:20.672Z,46.90
2023-05-25T22:05:48.672Z,47.47
2023-05-25T22:08:16.564Z,47.50
2023-05-25T22:10:44.708Z,47.72
2023-05-25T22:13:14.074Z,48.04
2023-05-25T22:15:42.036Z,48.12
2023-05-25T22:18:09.978Z,47.92
2023-05-25T22:20:41.426Z,48.18
2023-05-25T22:23:09.659Z,48.14
2023-05-25T22:25:37.606Z,47.88
2023-05-25T22:28:06.004Z,47.74
2023-05-25T22:30:35.324Z,48.07
2023-05-25T22:33:03.382Z,47.75
2023-05-25T22:35:31.397Z,48.15
2023-05-25T22:37:59.326Z,48.21
2023-05-25T22:40:28.590Z,47.81
2023-05-25T22:42:56.990Z,47.59
2023-05-25T22:45:24.889Z,47.81
2023-05-25T22:47:54.336Z,47.61
2023-05-25T22:50:22.413Z,47.33
2023-05-25T22:52:50.381Z,47.25
2023-05-25T22:55:18.418Z,47.16
2023-05-25T22:57:46.393Z,47.02
2023-05-25T23:00:14.861Z,47.02
2023-05-25T23:02:43.139Z,47.13
2023-05-25T23:05:12.556Z,47.49
2023-05-25T23:07:41.385Z,47.13
2023-05-25T23:10:10.121Z,47.43
2023-05-25T23:12:38.014Z,47.48
2023-05-25T23:15:08.105Z,47.30
2023-05-25T23:17:36.187Z,47.54
2023-05-25T23:20:07.467Z,47.24
2023-05-25T23:22:36.889Z,47.69
2023-05-25T23:25:05.114Z,47.44
2023-05-25T23:27:33.053Z,47.46
2023-05-25T23:30:02.140Z,47.02
2023-05-25T23:32:30.407Z,47.46
2023-05-25T23:34:58.402Z,47.44
2023-05-25T23:37:26.859Z,46.91
2023-05-25T23:39:56.143Z,47.00
2023-05-25T23:42:24.150Z,47.38
2023-05-25T23:44:52.059Z,47.58
2023-05-25T23:47:20.030Z,47.68
2023-05-25T23:49:47.971Z,47.22
2023-05-25T23:52:15.913Z,47.34
2023-05-25T23:54:43.833Z,47.46
2023-05-25T23:57:13.320Z,47.18
2023-05-25T23:59:42.008Z,47.38
